Time;durP1;ratioP1;P1;durP2;ratioP2;P2;SDS_P1;SDS_P2;PMS_P1;PMS_P2;Temp;Humidity;BMP_temperature;BMP_pressure;BME280_temperature;BME280_humidity;BME280_pressure;Samples;Min_cycle;Max_cycle;Signal;HPM_P1;HPM_P2
2022/03/09 00:01:23;;;;;;;12.23;4.85;;;;;;;-141.50;100.00;63355.56;5021406;28;20058;-78
2022/03/09 00:03:50;;;;;;;10.48;4.45;;;;;;;-141.50;100.00;63355.56;5021805;28;20140;-78
2022/03/09 00:06:16;;;;;;;14.13;6.30;;;;;;;-141.50;100.00;63355.56;5019860;28;20131;-78
2022/03/09 00:08:43;;;;;;;14.43;5.45;;;;;;;-141.50;100.00;63355.56;5020909;28;20588;-78
2022/03/09 00:11:10;;;;;;;21.92;8.48;;;;;;;-141.50;100.00;63355.56;5014670;28;20076;-78
2022/03/09 00:13:36;;;;;;;21.63;8.20;;;;;;;-141.50;100.00;63355.56;5019829;28;20107;-77
2022/03/09 00:16:03;;;;;;;16.45;6.45;;;;;;;-141.50;100.00;63355.56;5017833;28;20054;-79
2022/03/09 00:18:30;;;;;;;10.75;4.85;;;;;;;-141.50;100.00;63355.56;5019181;28;20053;-78
2022/03/09 00:20:57;;;;;;;11.38;5.53;;;;;;;-141.50;100.00;63355.56;5017462;28;20131;-78
2022/03/09 00:23:23;;;;;;;12.55;5.57;;;;;;;-141.50;100.00;63355.56;5020149;28;20108;-77
2022/03/09 00:25:50;;;;;;;10.20;4.85;;;;;;;-141.50;100.00;63355.56;5025415;28;20045;-78
2022/03/09 00:28:16;;;;;;;16.05;6.03;;;;;;;-141.50;100.00;63355.56;5025290;28;20046;-78
2022/03/09 00:30:43;;;;;;;10.52;4.63;;;;;;;-141.50;100.00;63355.56;5025279;28;20374;-79
2022/03/09 00:33:09;;;;;;;13.48;5.25;;;;;;;-141.50;100.00;63355.56;5026769;28;20049;-79
2022/03/09 00:35:39;;;;;;;13.90;5.75;;;;;;;-141.50;100.00;63355.56;5025673;28;20057;-79
2022/03/09 00:38:07;;;;;;;10.90;5.40;;;;;;;-141.50;100.00;63355.56;5024786;28;20057;-78
2022/03/09 00:40:34;;;;;;;10.93;5.32;;;;;;;-141.50;100.00;63355.56;5024235;28;20236;-78
2022/03/09 00:43:00;;;;;;;11.73;5.13;;;;;;;-141.50;100.00;63355.56;5026668;28;20057;-81
2022/03/09 00:45:27;;;;;;;14.40;6.10;;;;;;;-141.50;100.00;63355.56;5025058;28;20065;-78
2022/03/09 00:47:54;;;;;;;16.17;5.32;;;;;;;-141.50;100.00;63355.56;5020973;28;20050;-79
2022/03/09 00:50:20;;;;;;;12.70;5.50;;;;;;;-141.50;100.00;63355.56;5021513;28;20461;-79
2022/03/09 00:52:47;;;;;;;15.60;5.90;;;;;;;-141.50;100.00;63355.56;5020575;28;20049;-80
2022/03/09 00:55:14;;;;;;;13.73;6.07;;;;;;;-141.50;100.00;63355.56;5020623;28;20049;-77
2022/03/09 00:57:41;;;;;;;12.63;5.97;;;;;;;-141.50;100.00;63355.56;5017721;28;20046;-80
2022/03/09 01:00:08;;;;;;;14.82;5.20;;;;;;;-141.50;100.00;63355.56;5021712;28;20080;-80
2022/03/09 01:02:45;;;;;;;14.73;5.82;;;;;;;-141.50;100.00;63355.56;5025164;28;20050;-79
2022/03/09 01:05:14;;;;;;;14.23;5.72;;;;;;;-141.50;100.00;63355.56;5023282;28;20141;-79
2022/03/09 01:07:41;;;;;;;15.95;5.50;;;;;;;-141.50;100.00;63355.56;5024046;28;20046;-79
2022/03/09 01:10:09;;;;;;;12.35;5.32;;;;;;;-141.50;100.00;63355.56;5019800;28;20065;-79
2022/03/09 01:12:36;;;;;;;13.68;6.32;;;;;;;-141.50;100.00;63355.56;5026669;28;20050;-80
2022/03/09 01:15:03;;;;;;;11.77;5.63;;;;;;;-141.50;100.00;63355.56;5027436;28;20050;-80
2022/03/09 01:17:31;;;;;;;18.55;6.85;;;;;;;-141.50;100.00;63355.56;5027051;28;20125;-80
2022/03/09 01:19:58;;;;;;;19.83;6.80;;;;;;;-141.50;100.00;63355.56;5029928;28;20077;-80
2022/03/09 01:22:25;;;;;;;19.73;7.53;;;;;;;-141.50;100.00;63355.56;5028222;28;20065;-81
2022/03/09 01:24:52;;;;;;;13.63;5.80;;;;;;;-141.50;100.00;63355.56;5029587;28;20050;-79
2022/03/09 01:27:18;;;;;;;11.57;5.22;;;;;;;-141.50;100.00;63355.56;5046047;28;20058;-79
2022/03/09 01:29:46;;;;;;;13.10;5.60;;;;;;;-141.50;100.00;63355.56;5029633;28;20049;-80
2022/03/09 01:32:13;;;;;;;12.48;5.60;;;;;;;-141.50;100.00;63355.56;5029518;28;20046;-79
2022/03/09 01:34:39;;;;;;;15.10;5.53;;;;;;;-141.50;100.00;63355.56;5028670;28;20057;-80
2022/03/09 01:37:07;;;;;;;18.25;5.88;;;;;;;-141.50;100.00;63355.56;5028244;28;20045;-82
2022/03/09 01:39:33;;;;;;;16.42;6.22;;;;;;;-141.50;100.00;63355.56;5009187;28;20076;-80
2022/03/09 01:42:00;;;;;;;11.57;5.72;;;;;;;-141.50;100.00;63355.56;5031559;28;20081;-80
2022/03/09 01:44:27;;;;;;;12.52;5.53;;;;;;;-141.50;100.00;63355.56;5038740;28;20076;-79
2022/03/09 01:46:54;;;;;;;12.55;5.43;;;;;;;-141.50;100.00;63355.56;5040041;28;20076;-78
2022/03/09 01:49:22;;;;;;;13.95;5.63;;;;;;;-141.50;100.00;63355.56;5028938;28;20080;-78
2022/03/09 01:51:52;;;;;;;11.65;5.22;;;;;;;-141.50;100.00;63355.56;5023531;28;20053;-80
2022/03/09 01:54:19;;;;;;;11.68;5.25;;;;;;;-141.50;100.00;63355.56;5023993;28;20141;-78
2022/03/09 01:56:46;;;;;;;14.50;5.57;;;;;;;-141.50;100.00;63355.56;5025290;28;20583;-78
2022/03/09 01:59:14;;;;;;;12.93;5.35;;;;;;;-141.50;100.00;63355.56;5024164;28;20049;-79
2022/03/09 02:01:42;;;;;;;10.48;5.05;;;;;;;-141.50;100.00;63355.56;5024588;28;20060;-81
2022/03/09 02:04:10;;;;;;;14.52;5.55;;;;;;;-141.50;100.00;63355.56;5026395;28;20046;-79
2022/03/09 02:06:38;;;;;;;13.68;5.60;;;;;;;-141.50;100.00;63355.56;5028240;28;20057;-77
2022/03/09 02:11:54;;;;;;;15.60;5.95;;;;;;;-141.50;100.00;63355.56;5028130;28;20050;-75
2022/03/09 02:14:27;;;;;;;15.63;5.82;;;;;;;-141.50;100.00;63355.56;5023508;28;20084;-79
2022/03/09 02:16:56;;;;;;;16.25;5.78;;;;;;;-141.50;100.00;63355.56;5008314;28;20046;-79
2022/03/09 02:19:23;;;;;;;15.15;6.15;;;;;;;-141.50;100.00;63355.56;5027013;28;20060;-79
2022/03/09 02:21:55;;;;;;;16.70;5.90;;;;;;;-141.50;100.00;63355.56;5025610;28;20069;-80
2022/03/09 02:24:22;;;;;;;19.70;6.72;;;;;;;-141.50;100.00;63355.56;5023384;28;20132;-79
2022/03/09 02:26:50;;;;;;;16.33;6.20;;;;;;;-141.50;100.00;63355.56;5022579;28;20390;-80
2022/03/09 02:29:16;;;;;;;13.65;5.80;;;;;;;-141.50;100.00;63355.56;5021783;28;20085;-78
2022/03/09 02:31:43;;;;;;;16.25;6.28;;;;;;;-141.50;100.00;63355.56;5020415;28;20050;-78
2022/03/09 02:34:10;;;;;;;17.00;6.43;;;;;;;-141.50;100.00;63355.56;5022265;28;20054;-78
2022/03/09 02:36:39;;;;;;;14.40;6.03;;;;;;;-141.50;100.00;63355.56;4999410;28;20050;-79
2022/03/09 02:39:06;;;;;;;20.55;5.80;;;;;;;-141.50;100.00;63355.56;5016064;28;20054;-79
2022/03/09 02:41:33;;;;;;;21.83;6.18;;;;;;;-141.50;100.00;63355.56;5015919;28;20050;-80
2022/03/09 02:44:03;;;;;;;12.75;5.50;;;;;;;-141.50;100.00;63355.56;5016117;28;20073;-79
2022/03/09 02:46:30;;;;;;;13.73;6.38;;;;;;;-141.50;100.00;63355.56;5016870;28;20038;-79
2022/03/09 02:48:57;;;;;;;13.23;5.70;;;;;;;-141.50;100.00;63355.56;5015386;28;20081;-79
2022/03/09 02:51:23;;;;;;;15.48;6.28;;;;;;;-141.50;100.00;63355.56;5014045;28;20058;-77
2022/03/09 02:53:50;;;;;;;15.80;5.53;;;;;;;-141.50;100.00;63355.56;5015198;28;20080;-78
2022/03/09 02:56:16;;;;;;;14.57;6.00;;;;;;;-141.50;100.00;63355.56;4998455;28;20103;-78
2022/03/09 02:58:44;;;;;;;14.95;6.07;;;;;;;-141.50;100.00;63355.56;5016232;28;20046;-77
2022/03/09 03:01:13;;;;;;;17.42;7.57;;;;;;;-141.50;100.00;63355.56;5015311;28;20077;-78
2022/03/09 03:03:43;;;;;;;13.90;6.28;;;;;;;-141.50;100.00;63355.56;5016173;28;20719;-79
2022/03/09 03:06:11;;;;;;;17.08;6.47;;;;;;;-141.50;100.00;63355.56;5015102;28;20057;-78
2022/03/09 03:08:39;;;;;;;15.65;6.75;;;;;;;-141.50;100.00;63355.56;5016698;28;20104;-79
2022/03/09 03:11:08;;;;;;;15.35;6.30;;;;;;;-141.50;100.00;63355.56;5010671;28;20049;-77
2022/03/09 03:13:36;;;;;;;17.33;6.60;;;;;;;-141.50;100.00;63355.56;5016257;28;20100;-80
2022/03/09 03:16:03;;;;;;;15.10;6.50;;;;;;;-141.50;100.00;63355.56;5018228;28;20049;-78
2022/03/09 03:18:30;;;;;;;14.40;5.90;;;;;;;-141.50;100.00;63355.56;5023849;28;20073;-79
2022/03/09 03:20:57;;;;;;;17.45;6.85;;;;;;;-141.50;100.00;63355.56;5007668;28;20068;-80
2022/03/09 03:23:25;;;;;;;17.25;6.45;;;;;;;-141.50;100.00;63355.56;5023483;28;20082;-78
2022/03/09 03:25:53;;;;;;;13.27;5.82;;;;;;;-141.50;100.00;63355.56;5018903;28;20057;-79
2022/03/09 03:28:21;;;;;;;17.85;6.50;;;;;;;-141.50;100.00;63355.56;5020136;28;20564;-79
2022/03/09 03:30:50;;;;;;;13.95;5.57;;;;;;;-141.50;100.00;63355.56;5022164;28;20496;-82
2022/03/09 03:33:18;;;;;;;14.32;5.90;;;;;;;-141.50;100.00;63355.56;5023079;28;20619;-81
2022/03/09 03:35:46;;;;;;;12.07;5.60;;;;;;;-141.50;100.00;63355.56;5019576;28;20120;-81
2022/03/09 03:38:13;;;;;;;14.98;6.00;;;;;;;-141.50;100.00;63355.56;5022213;28;20058;-79
2022/03/09 03:40:39;;;;;;;13.48;6.07;;;;;;;-141.50;100.00;63355.56;5025018;28;20409;-79
2022/03/09 03:43:06;;;;;;;19.02;6.45;;;;;;;-141.50;100.00;63355.56;5025183;28;20054;-80
2022/03/09 03:45:33;;;;;;;16.73;6.38;;;;;;;-141.50;100.00;63355.56;5023112;28;20053;-77
2022/03/09 03:48:00;;;;;;;15.55;6.30;;;;;;;-141.50;100.00;63355.56;5021543;28;20525;-77
2022/03/09 03:50:27;;;;;;;16.70;6.53;;;;;;;-141.50;100.00;63355.56;5020184;28;20054;-78
2022/03/09 03:52:55;;;;;;;16.13;6.20;;;;;;;-141.50;100.00;63355.56;5017835;28;20050;-78
2022/03/09 03:55:22;;;;;;;18.05;6.28;;;;;;;-141.50;100.00;63355.56;5012943;28;20053;-81
2022/03/09 03:57:48;;;;;;;25.02;10.13;;;;;;;-141.50;100.00;63355.56;5013970;28;20505;-78
2022/03/09 04:00:16;;;;;;;18.45;7.65;;;;;;;-141.50;100.00;63355.56;5015630;28;20081;-78
2022/03/09 04:02:42;;;;;;;20.85;7.13;;;;;;;-141.50;100.00;63355.56;5015859;28;20053;-78
2022/03/09 04:05:09;;;;;;;14.95;5.70;;;;;;;-141.50;100.00;63355.56;5018012;28;20059;-78
2022/03/09 04:07:35;;;;;;;16.98;6.93;;;;;;;-141.50;100.00;63355.56;5000507;28;20181;-80
2022/03/09 04:10:03;;;;;;;20.88;7.15;;;;;;;-141.50;100.00;63355.56;5018068;28;20046;-80
2022/03/09 04:12:30;;;;;;;23.83;8.77;;;;;;;-141.50;100.00;63355.56;5019472;28;20518;-79
2022/03/09 04:14:56;;;;;;;19.63;7.80;;;;;;;-141.50;100.00;63355.56;5018406;28;20060;-78
2022/03/09 04:17:23;;;;;;;21.50;7.88;;;;;;;-141.50;100.00;63355.56;5021794;28;20050;-79
2022/03/09 04:19:50;;;;;;;17.80;6.80;;;;;;;-141.50;100.00;63355.56;5016203;28;20132;-80
2022/03/09 04:22:17;;;;;;;19.67;7.40;;;;;;;-141.50;100.00;63355.56;5009826;28;20061;-80
2022/03/09 04:24:43;;;;;;;18.08;7.70;;;;;;;-141.50;100.00;63355.56;5009150;28;20042;-78
2022/03/09 04:27:10;;;;;;;16.48;6.50;;;;;;;-141.50;100.00;63355.56;4989929;28;20073;-78
2022/03/09 04:29:36;;;;;;;14.50;6.53;;;;;;;-141.50;100.00;63355.56;5011165;28;20133;-78
2022/03/09 04:32:06;;;;;;;20.48;7.05;;;;;;;-141.50;100.00;63355.56;5010883;28;20124;-79
2022/03/09 04:34:33;;;;;;;16.23;7.07;;;;;;;-141.50;100.00;63355.56;5010550;28;20041;-79
2022/03/09 04:36:59;;;;;;;18.27;6.70;;;;;;;-141.50;100.00;63355.56;4990051;28;20046;-78
2022/03/09 04:39:26;;;;;;;20.38;7.72;;;;;;;-141.50;100.00;63355.56;4991471;28;20038;-78
2022/03/09 04:41:52;;;;;;;19.23;7.95;;;;;;;-141.50;100.00;63355.56;5016856;28;20042;-77
2022/03/09 04:44:19;;;;;;;18.75;6.20;;;;;;;-141.50;100.00;63355.56;5015616;28;20494;-76
2022/03/09 04:46:45;;;;;;;17.80;6.45;;;;;;;-141.50;100.00;63355.56;5015984;28;20050;-80
2022/03/09 04:49:12;;;;;;;16.55;6.95;;;;;;;-141.50;100.00;63355.56;5004887;28;20080;-78
2022/03/09 04:51:38;;;;;;;23.98;8.32;;;;;;;-141.50;100.00;63355.56;4997296;28;20054;-79
2022/03/09 04:54:05;;;;;;;21.20;7.82;;;;;;;-141.50;100.00;63355.56;4977179;28;20126;-76
2022/03/09 04:56:31;;;;;;;27.55;10.23;;;;;;;-141.50;100.00;63355.56;4998157;28;20525;-78
2022/03/09 04:58:58;;;;;;;34.60;13.13;;;;;;;-141.50;100.00;63355.56;4996170;28;20112;-77
2022/03/09 05:01:24;;;;;;;41.88;13.43;;;;;;;-141.50;100.00;63355.56;4995283;28;20495;-77
2022/03/09 05:03:51;;;;;;;38.80;14.35;;;;;;;-141.50;100.00;63355.56;5010452;28;20057;-79
2022/03/09 05:06:18;;;;;;;39.58;14.35;;;;;;;-141.50;100.00;63355.56;5020912;28;20057;-80
2022/03/09 05:08:44;;;;;;;35.42;12.90;;;;;;;-141.50;100.00;63355.56;5032898;28;20123;-77
2022/03/09 05:11:11;;;;;;;43.20;13.02;;;;;;;-141.50;100.00;63355.56;5033140;28;20104;-76
2022/03/09 05:13:38;;;;;;;37.30;13.60;;;;;;;-141.50;100.00;63355.56;5014658;28;20104;-78
2022/03/09 05:16:05;;;;;;;37.85;13.25;;;;;;;-141.50;100.00;63355.56;5010774;28;20054;-77
2022/03/09 05:18:37;;;;;;;36.83;12.73;;;;;;;-141.50;100.00;63355.56;5011004;28;20045;-77
2022/03/09 05:21:04;;;;;;;40.45;13.52;;;;;;;-141.50;100.00;63355.56;5011604;28;20088;-78
2022/03/09 05:23:31;;;;;;;44.40;12.40;;;;;;;-141.50;100.00;63355.56;5015290;28;20510;-77
2022/03/09 05:25:57;;;;;;;21.48;7.20;;;;;;;-141.50;100.00;63355.56;5014384;28;20057;-78
2022/03/09 05:28:24;;;;;;;20.77;7.70;;;;;;;-141.50;100.00;63355.56;5025125;28;20155;-77
2022/03/09 05:30:51;;;;;;;21.30;8.02;;;;;;;-141.50;100.00;63355.56;5009405;28;20109;-80
2022/03/09 05:33:17;;;;;;;24.73;8.20;;;;;;;-141.50;100.00;63355.56;5013351;28;20056;-79
2022/03/09 05:35:44;;;;;;;22.90;8.73;;;;;;;-141.50;100.00;63355.56;5006521;28;20406;-79
2022/03/09 05:38:11;;;;;;;22.48;8.75;;;;;;;-141.50;100.00;63355.56;5004987;28;20537;-79
2022/03/09 05:40:40;;;;;;;23.45;8.93;;;;;;;-141.50;100.00;63355.56;5010136;28;20050;-78
2022/03/09 05:43:07;;;;;;;19.85;8.35;;;;;;;-141.50;100.00;63355.56;5012198;28;20046;-77
2022/03/09 05:45:33;;;;;;;20.92;9.10;;;;;;;-141.50;100.00;63355.56;5014463;28;20046;-78
2022/03/09 05:48:00;;;;;;;26.52;9.52;;;;;;;-141.50;100.00;63355.56;5015000;28;20092;-78
2022/03/09 05:50:27;;;;;;;27.13;9.30;;;;;;;-141.50;100.00;63355.56;5014951;28;20180;-78
2022/03/09 05:52:54;;;;;;;24.35;8.13;;;;;;;-141.50;100.00;63355.56;5016126;28;20071;-78
2022/03/09 05:55:21;;;;;;;24.17;8.70;;;;;;;-141.50;100.00;63355.56;5017277;28;20058;-78
2022/03/09 05:57:48;;;;;;;20.52;8.30;;;;;;;-141.50;100.00;63355.56;5016491;28;20073;-77
2022/03/09 06:00:15;;;;;;;23.27;8.82;;;;;;;-141.50;100.00;63355.56;5017840;28;20180;-80
2022/03/09 06:02:42;;;;;;;26.65;8.80;;;;;;;-141.50;100.00;63355.56;5018119;28;20049;-78
2022/03/09 06:05:10;;;;;;;29.30;8.57;;;;;;;-141.50;100.00;63355.56;5023471;28;20053;-78
2022/03/09 06:07:36;;;;;;;25.10;8.52;;;;;;;-141.50;100.00;63355.56;5024629;28;20148;-78
2022/03/09 06:10:03;;;;;;;24.75;9.18;;;;;;;-141.50;100.00;63355.56;5021134;28;20053;-78
2022/03/09 06:12:30;;;;;;;25.05;9.40;;;;;;;-141.50;100.00;63355.56;5024475;28;20461;-78
2022/03/09 06:14:57;;;;;;;22.40;9.27;;;;;;;-141.50;100.00;63355.56;5022317;28;20058;-80
2022/03/09 06:17:29;;;;;;;29.75;8.93;;;;;;;-141.50;100.00;63355.56;5024471;28;20081;-79
2022/03/09 06:19:56;;;;;;;23.63;9.23;;;;;;;-141.50;100.00;63355.56;5006333;28;20100;-77
2022/03/09 06:22:22;;;;;;;23.88;8.32;;;;;;;-141.50;100.00;63355.56;5004957;28;20128;-78
2022/03/09 06:24:52;;;;;;;21.60;8.57;;;;;;;-141.50;100.00;63355.56;5006417;28;20069;-79
2022/03/09 06:27:18;;;;;;;25.33;9.52;;;;;;;-141.50;100.00;63355.56;5006959;28;20124;-77
2022/03/09 06:29:45;;;;;;;23.08;9.02;;;;;;;-141.50;100.00;63355.56;5006036;28;20046;-78
2022/03/09 06:32:11;;;;;;;26.50;9.45;;;;;;;-141.50;100.00;63355.56;5005730;28;20117;-78
2022/03/09 06:34:38;;;;;;;22.00;8.48;;;;;;;-141.50;100.00;63355.56;5004854;28;20114;-79
2022/03/09 06:37:05;;;;;;;24.42;9.77;;;;;;;-141.50;100.00;63355.56;5005678;28;20104;-78
2022/03/09 06:39:31;;;;;;;38.55;13.23;;;;;;;-141.50;100.00;63355.56;5004960;28;20058;-77
2022/03/09 06:41:58;;;;;;;39.50;11.27;;;;;;;-141.50;100.00;63355.56;5005414;28;20094;-82
2022/03/09 06:44:25;;;;;;;42.45;14.30;;;;;;;-141.50;100.00;63355.56;5004950;28;20054;-79
2022/03/09 06:46:51;;;;;;;41.15;14.65;;;;;;;-141.50;100.00;63355.56;5003948;28;20058;-76
2022/03/09 06:49:18;;;;;;;28.95;11.13;;;;;;;-141.50;100.00;63355.56;5005549;28;20058;-81
2022/03/09 06:51:44;;;;;;;26.98;11.18;;;;;;;-141.50;100.00;63355.56;5003985;28;20113;-77
2022/03/09 06:54:14;;;;;;;29.25;10.80;;;;;;;-141.50;100.00;63355.56;5006829;28;20050;-78
2022/03/09 06:56:40;;;;;;;29.23;9.93;;;;;;;-141.50;100.00;63355.56;5006720;28;20281;-79
2022/03/09 06:59:07;;;;;;;35.45;10.65;;;;;;;-141.50;100.00;63355.56;5006647;28;20058;-78
2022/03/09 07:01:33;;;;;;;31.77;11.00;;;;;;;-141.50;100.00;63355.56;5006455;28;20050;-78
2022/03/09 07:04:00;;;;;;;26.85;9.93;;;;;;;-141.50;100.00;63355.56;5008154;28;20050;-77
2022/03/09 07:06:28;;;;;;;26.15;9.00;;;;;;;-141.50;100.00;63355.56;5009608;28;20054;-78
2022/03/09 07:08:54;;;;;;;23.35;9.27;;;;;;;-141.50;100.00;63355.56;5009185;28;20537;-80
2022/03/09 07:11:21;;;;;;;22.67;9.00;;;;;;;-141.50;100.00;63355.56;5008552;28;20054;-79
2022/03/09 07:13:47;;;;;;;29.58;7.88;;;;;;;-141.50;100.00;63355.56;5008941;28;20035;-77
2022/03/09 07:16:14;;;;;;;23.40;8.13;;;;;;;-141.50;100.00;63355.56;5007353;28;20054;-80
2022/03/09 07:18:41;;;;;;;19.17;7.68;;;;;;;-141.50;100.00;63355.56;4993271;28;20050;-78
2022/03/09 07:21:07;;;;;;;24.05;8.10;;;;;;;-141.50;100.00;63355.56;5010288;28;20052;-80
2022/03/09 07:23:34;;;;;;;25.27;7.97;;;;;;;-141.50;100.00;63355.56;4995311;28;20058;-78
2022/03/09 07:26:02;;;;;;;21.33;7.85;;;;;;;-141.50;100.00;63355.56;4994967;28;20069;-79
2022/03/09 07:28:32;;;;;;;16.73;6.88;;;;;;;-141.50;100.00;63355.56;5013588;28;20041;-78
2022/03/09 07:30:59;;;;;;;16.65;6.78;;;;;;;-141.50;100.00;63355.56;5012414;28;20046;-80
2022/03/09 07:33:26;;;;;;;18.95;7.22;;;;;;;-141.50;100.00;63355.56;5005740;28;20568;-79
2022/03/09 07:35:52;;;;;;;20.55;6.82;;;;;;;-141.50;100.00;63355.56;5003393;28;20050;-80
2022/03/09 07:38:19;;;;;;;17.08;6.63;;;;;;;-141.50;100.00;63355.56;5012478;28;20046;-79
2022/03/09 07:40:45;;;;;;;21.27;7.35;;;;;;;-141.50;100.00;63355.56;5011731;28;20042;-79
2022/03/09 07:43:12;;;;;;;18.88;7.80;;;;;;;-141.50;100.00;63355.56;5011315;28;20113;-78
2022/03/09 07:45:44;;;;;;;15.82;6.30;;;;;;;-141.50;100.00;63355.56;5010607;28;20054;-80
2022/03/09 07:48:11;;;;;;;18.63;7.28;;;;;;;-141.50;100.00;63355.56;5008768;28;20054;-79
2022/03/09 07:50:38;;;;;;;18.15;7.68;;;;;;;-141.50;100.00;63355.56;5008901;28;20042;-80
2022/03/09 07:53:05;;;;;;;17.75;7.35;;;;;;;-141.50;100.00;63355.56;5008101;28;20446;-77
2022/03/09 07:55:34;;;;;;;20.13;7.55;;;;;;;-141.50;100.00;63355.56;5006878;28;20116;-78
2022/03/09 07:58:02;;;;;;;21.98;7.47;;;;;;;-141.50;100.00;63355.56;5003673;28;20054;-78
2022/03/09 08:00:29;;;;;;;27.70;8.35;;;;;;;-141.50;100.00;63355.56;5001916;28;20054;-79
2022/03/09 08:02:55;;;;;;;18.63;7.82;;;;;;;-141.50;100.00;63355.56;5005718;28;20054;-79
2022/03/09 08:05:44;;;;;;;18.83;7.90;;;;;;;-141.50;100.00;63355.56;5004373;28;20597;-78
2022/03/09 08:08:10;;;;;;;25.88;7.85;;;;;;;-141.50;100.00;63355.56;5008263;28;20485;-79
2022/03/09 08:10:37;;;;;;;23.30;8.65;;;;;;;-141.50;100.00;63355.56;5008400;28;20134;-78
2022/03/09 08:13:04;;;;;;;20.60;8.80;;;;;;;-141.50;100.00;63355.56;4991467;28;20073;-80
2022/03/09 08:15:30;;;;;;;20.25;8.23;;;;;;;-141.50;100.00;63355.56;5007584;28;20051;-78
2022/03/09 08:17:57;;;;;;;23.35;7.78;;;;;;;-141.50;100.00;63355.56;5007264;28;20056;-81
2022/03/09 08:20:24;;;;;;;18.80;8.05;;;;;;;-141.50;100.00;63355.56;5006973;28;20054;-80
2022/03/09 08:22:51;;;;;;;18.08;7.97;;;;;;;-141.50;100.00;63355.56;4989040;28;20062;-78
2022/03/09 08:25:18;;;;;;;19.77;7.22;;;;;;;-141.50;100.00;63355.56;5006790;28;20359;-77
2022/03/09 08:27:44;;;;;;;19.00;6.82;;;;;;;-141.50;100.00;63355.56;5005842;28;20077;-79
2022/03/09 08:30:12;;;;;;;15.23;7.15;;;;;;;-141.50;100.00;63355.56;5004852;28;20042;-80
2022/03/09 08:32:38;;;;;;;15.45;6.82;;;;;;;-141.50;100.00;63355.56;5007957;28;20060;-80
2022/03/09 08:35:05;;;;;;;15.52;6.50;;;;;;;-141.50;100.00;63355.56;5014932;28;20080;-79
2022/03/09 08:37:32;;;;;;;19.20;7.18;;;;;;;-141.50;100.00;63355.56;5014792;28;20035;-82
2022/03/09 08:39:58;;;;;;;15.27;6.40;;;;;;;-141.50;100.00;63355.56;5009225;28;20050;-79
2022/03/09 08:42:25;;;;;;;15.93;6.40;;;;;;;-141.50;100.00;63355.56;5003389;28;20077;-79
2022/03/09 08:44:51;;;;;;;17.00;6.55;;;;;;;-141.50;100.00;63355.56;5001390;28;20082;-80
2022/03/09 08:47:18;;;;;;;14.63;6.32;;;;;;;-141.50;100.00;63355.56;5005200;28;20050;-78
2022/03/09 08:49:45;;;;;;;17.60;6.07;;;;;;;-141.50;100.00;63355.56;5001112;28;20069;-80
2022/03/09 08:52:13;;;;;;;19.67;6.68;;;;;;;-141.50;100.00;63355.56;5003042;28;20046;-79
2022/03/09 08:54:40;;;;;;;15.30;6.45;;;;;;;-141.50;100.00;63355.56;5003762;28;20085;-78
2022/03/09 08:57:08;;;;;;;14.57;6.32;;;;;;;-141.50;100.00;63355.56;5018272;28;20068;-79
2022/03/09 08:59:35;;;;;;;15.60;6.43;;;;;;;-141.50;100.00;63355.56;5044105;28;20061;-78
2022/03/09 09:02:02;;;;;;;14.45;6.65;;;;;;;-141.50;100.00;63355.56;5044134;28;20053;-80
2022/03/09 09:04:28;;;;;;;15.52;6.20;;;;;;;-141.50;100.00;63355.56;5044189;28;20045;-80
2022/03/09 09:06:55;;;;;;;16.98;6.32;;;;;;;-141.50;100.00;63355.56;5046442;28;20233;-78
2022/03/09 09:09:23;;;;;;;27.67;7.13;;;;;;;-141.50;100.00;63355.56;5046083;28;20440;-77
2022/03/09 09:11:50;;;;;;;20.08;6.65;;;;;;;-141.50;100.00;63355.56;5046559;28;20389;-79
2022/03/09 09:14:17;;;;;;;16.48;6.68;;;;;;;-141.50;100.00;63355.56;5048317;28;20080;-78
2022/03/09 09:16:47;;;;;;;18.83;6.55;;;;;;;-141.50;100.00;63355.56;5046223;28;20049;-78
2022/03/09 09:19:14;;;;;;;15.90;6.38;;;;;;;-141.50;100.00;63355.56;5046842;28;20050;-78
2022/03/09 09:21:43;;;;;;;15.32;6.30;;;;;;;-141.50;100.00;63355.56;5046245;28;20072;-80
2022/03/09 09:24:10;;;;;;;18.48;6.13;;;;;;;-141.50;100.00;63355.56;5045817;28;20098;-78
2022/03/09 09:26:36;;;;;;;12.50;5.88;;;;;;;-141.50;100.00;63355.56;5047847;28;20049;-81
2022/03/09 09:29:23;;;;;;;17.25;6.43;;;;;;;-141.50;100.00;63355.56;5048085;28;20129;-79
2022/03/09 09:31:49;;;;;;;11.65;6.15;;;;;;;-141.50;100.00;63355.56;5030514;28;20249;-78
2022/03/09 09:34:16;;;;;;;14.98;6.60;;;;;;;-141.50;100.00;63355.56;5048518;28;20046;-81
2022/03/09 09:36:46;;;;;;;17.65;6.35;;;;;;;-141.50;100.00;63355.56;5048757;28;20060;-80
2022/03/09 09:39:15;;;;;;;16.63;6.22;;;;;;;-141.50;100.00;63355.56;5048726;28;20119;-79
2022/03/09 09:41:43;;;;;;;14.02;5.93;;;;;;;-141.50;100.00;63355.56;5050935;28;20107;-80
2022/03/09 09:44:11;;;;;;;14.13;6.20;;;;;;;-141.50;100.00;63355.56;5052048;28;20192;-81
2022/03/09 09:46:39;;;;;;;12.02;5.65;;;;;;;-141.50;100.00;63355.56;5051910;28;20046;-78
2022/03/09 09:49:08;;;;;;;15.07;5.82;;;;;;;-141.50;100.00;63355.56;5050755;28;20045;-79
2022/03/09 09:51:37;;;;;;;12.88;5.55;;;;;;;-141.50;100.00;63355.56;5051203;28;20048;-79
2022/03/09 09:54:07;;;;;;;12.15;5.40;;;;;;;-141.50;100.00;63355.56;5053311;28;20064;-80
2022/03/09 09:56:36;;;;;;;12.68;5.68;;;;;;;-141.50;100.00;63355.56;5053208;28;20056;-80
2022/03/09 09:59:03;;;;;;;12.98;4.90;;;;;;;-141.50;100.00;63355.56;5051574;28;20053;-79
2022/03/09 10:01:30;;;;;;;10.85;4.95;;;;;;;-141.50;100.00;63355.56;5051743;28;20046;-81
2022/03/09 10:03:57;;;;;;;9.00;4.35;;;;;;;-141.50;100.00;63355.56;5054994;28;20112;-81
2022/03/09 10:06:23;;;;;;;10.38;4.43;;;;;;;-141.50;100.00;63355.56;5054991;28;20060;-80
2022/03/09 10:09:00;;;;;;;9.52;4.43;;;;;;;-141.50;100.00;63355.56;5053653;28;20080;-82
2022/03/09 10:11:53;;;;;;;12.40;3.85;;;;;;;-141.50;100.00;63355.56;5054790;28;20046;-80
2022/03/09 10:14:50;;;;;;;13.98;4.80;;;;;;;-141.50;100.00;63355.56;5055389;28;20053;-80
2022/03/09 10:17:26;;;;;;;11.07;4.50;;;;;;;-141.50;100.00;63355.56;5054496;28;20076;-81
2022/03/09 10:19:58;;;;;;;30.75;11.05;;;;;;;-141.50;100.00;63355.56;5054679;28;20053;-80
2022/03/09 10:22:27;;;;;;;18.20;5.43;;;;;;;-141.50;100.00;63355.56;5054639;28;20054;-81
2022/03/09 10:25:14;;;;;;;21.20;8.13;;;;;;;-141.50;100.00;63355.56;5053142;28;20061;-81
2022/03/09 10:27:43;;;;;;;9.98;4.40;;;;;;;-141.50;100.00;63355.56;5055322;28;20069;-81
2022/03/09 10:30:13;;;;;;;9.13;4.57;;;;;;;-141.50;100.00;63355.56;5055278;28;20032;-80
2022/03/09 10:32:43;;;;;;;9.38;4.00;;;;;;;-141.50;100.00;63355.56;5053660;28;20049;-81
2022/03/09 10:35:11;;;;;;;18.95;6.53;;;;;;;-141.50;100.00;63355.56;5054479;28;20037;-80
2022/03/09 10:37:43;;;;;;;17.88;7.22;;;;;;;-141.50;100.00;63355.56;5053779;28;20046;-82
2022/03/09 10:40:20;;;;;;;6.28;4.25;;;;;;;-141.50;100.00;63355.56;5054280;28;20076;-83
2022/03/09 10:42:48;;;;;;;8.27;3.92;;;;;;;-141.50;100.00;63355.56;5054290;28;20213;-81
2022/03/09 10:45:17;;;;;;;11.25;4.22;;;;;;;-141.50;100.00;63355.56;5037776;28;20164;-82
2022/03/09 10:47:46;;;;;;;7.60;4.05;;;;;;;-141.50;100.00;63355.56;5055412;28;20084;-81
2022/03/09 10:50:20;;;;;;;13.05;6.03;;;;;;;-141.50;100.00;63355.56;5038075;28;20098;-82
2022/03/09 10:53:04;;;;;;;6.63;4.00;;;;;;;-141.50;100.00;63355.56;5055654;28;20049;-82
2022/03/09 10:55:33;;;;;;;9.10;4.35;;;;;;;-141.50;100.00;63355.56;5055774;28;20029;-81
2022/03/09 10:58:11;;;;;;;11.23;4.88;;;;;;;-141.50;100.00;63355.56;5055975;28;20041;-81
2022/03/09 11:00:57;;;;;;;9.98;4.72;;;;;;;-141.50;100.00;63355.56;5054343;28;20049;-79
2022/03/09 11:03:33;;;;;;;7.20;4.28;;;;;;;-141.50;100.00;63355.56;5052677;28;20083;-82
2022/03/09 11:06:02;;;;;;;;;;;;;;;-141.50;100.00;63355.56;5052582;28;20041;-81
2022/03/09 11:08:34;;;;;;;6.05;3.70;;;;;;;-141.50;100.00;63355.56;5053953;28;19921;-81